Aviation Digital Data Service (ADDS)

Output produced by METARs form (1335 UTC 21 August 2019)
found at http://www.aviationweather.gov/metar/data/
 
Forecast for: ZSOF (HEFEI/XINGIAO , CN)
Text: TAF ZSOF 210904Z 2112/2212 06003MPS 6000 NSC TX33/2206Z TN23/2122Z
Forecast period: 1200 UTC 21 August 2019 to 1200 UTC 22 August 2019
Forecast type: FROM: standard forecast or significant change
Winds: from the ENE (60 degrees) at 7 MPH (6 knots; 3.1 m/s)
Visibility: 4 miles (6 km)
Ceiling: unknown
Clouds: missing
Weather: no significant weather forecast for this period